Terminal Aerodrome Forecast
Issued by NWS

Home | Current Version | Previous Version | Text Only | Print | Product List | Glossary On
Versions: 1 2 3 4 5 6 7 8 9 10 11 12 13 14 15 16
000
FTUS45 KABQ 040541
TAFLVS
TAF
KLVS 040541Z 0406/0506 24007KT P6SM SCT200
     FM041300 24009KT P6SM BKN100
     FM041600 22016G26KT P6SM BKN090
     FM041900 22020G30KT P6SM VCTS BKN070CB
     FM050000 20014KT P6SM VCSH BKN080=

USA.gov is the U.S. government's official web portal to all federal, state and local government web resources and services.